Time;durP1;ratioP1;P1;durP2;ratioP2;P2;SDS_P1;SDS_P2;PMS_P1;PMS_P2;Temp;Humidity;BMP_temperature;BMP_pressure;BME280_temperature;BME280_humidity;BME280_pressure;Samples;Min_cycle;Max_cycle;Signal;HPM_P1;HPM_P2
2023/11/04 00:02:12;;;;;;;8.20;3.93;;;11.00;99.90;;;;;;5097470;28;20535;-60
2023/11/04 00:04:39;;;;;;;15.20;4.63;;;10.90;99.90;;;;;;5098692;28;20491;-61
2023/11/04 00:07:08;;;;;;;5.33;2.87;;;10.90;99.90;;;;;;5116826;28;20759;-60
2023/11/04 00:09:38;;;;;;;4.83;2.20;;;10.80;99.90;;;;;;5109652;28;20464;-56
2023/11/04 00:12:06;;;;;;;5.23;2.00;;;10.80;99.90;;;;;;5103095;28;20775;-61
2023/11/04 00:14:34;;;;;;;4.90;2.30;;;10.80;99.90;;;;;;5107454;28;20928;-60
2023/11/04 00:17:01;;;;;;;6.90;1.90;;;10.70;99.90;;;;;;5084542;28;20438;-60
2023/11/04 00:19:28;;;;;;;7.50;1.83;;;10.70;99.90;;;;;;5096353;28;20524;-60
2023/11/04 00:21:56;;;;;;;3.80;2.00;;;10.70;99.90;;;;;;5108382;28;20505;-60
2023/11/04 00:24:23;;;;;;;11.23;2.70;;;10.70;99.90;;;;;;5106386;28;20583;-60
2023/11/04 00:26:52;;;;;;;5.20;2.10;;;10.60;99.90;;;;;;5096610;28;20469;-59
2023/11/04 00:29:19;;;;;;;8.97;2.57;;;10.60;99.90;;;;;;5099388;28;20937;-60
2023/11/04 00:31:46;;;;;;;5.57;2.07;;;10.60;99.90;;;;;;5096444;28;20537;-61
2023/11/04 00:34:15;;;;;;;8.87;2.20;;;10.50;99.90;;;;;;5112082;28;20520;-59
2023/11/04 00:36:43;;;;;;;3.33;1.53;;;10.50;99.90;;;;;;5102707;28;20421;-61
2023/11/04 00:39:13;;;;;;;3.27;1.90;;;10.50;99.90;;;;;;5107291;28;20458;-59
2023/11/04 00:41:40;;;;;;;3.37;1.80;;;10.50;99.90;;;;;;5076934;28;20969;-59
2023/11/04 00:44:08;;;;;;;7.23;2.07;;;10.40;99.90;;;;;;5086888;28;20434;-58
2023/11/04 00:46:35;;;;;;;5.20;2.03;;;10.40;99.90;;;;;;5076637;28;20489;-59
2023/11/04 00:49:03;;;;;;;3.23;1.83;;;10.40;99.90;;;;;;5086947;28;20438;-57
2023/11/04 00:51:30;;;;;;;6.00;2.13;;;10.30;99.90;;;;;;5097271;28;20448;-54
2023/11/04 00:53:57;;;;;;;2.83;2.07;;;10.30;99.90;;;;;;5098528;28;20426;-56
2023/11/04 00:56:25;;;;;;;7.07;2.17;;;10.30;99.90;;;;;;5077374;28;20450;-60
2023/11/04 00:58:52;;;;;;;4.60;2.30;;;10.30;99.90;;;;;;5075856;28;20888;-57
2023/11/04 01:01:21;;;;;;;13.10;1.90;;;10.30;99.90;;;;;;5089353;28;20468;-57
2023/11/04 01:03:48;;;;;;;3.40;1.30;;;10.30;99.90;;;;;;5106255;28;20515;-58
2023/11/04 01:06:16;;;;;;;12.93;2.73;;;10.20;99.90;;;;;;5102786;28;20441;-58
2023/11/04 01:08:44;;;;;;;4.40;1.87;;;10.20;99.90;;;;;;5110814;28;20449;-60
2023/11/04 01:11:11;;;;;;;9.03;2.47;;;10.20;99.90;;;;;;5113247;28;20481;-59
2023/11/04 01:13:39;;;;;;;6.50;1.73;;;10.10;99.90;;;;;;5116175;28;20471;-61
2023/11/04 01:16:07;;;;;;;9.00;1.90;;;10.10;99.90;;;;;;5108781;28;20546;-57
2023/11/04 01:18:36;;;;;;;12.50;2.50;;;10.10;99.90;;;;;;5116242;28;20449;-59
2023/11/04 01:21:03;;;;;;;8.00;2.00;;;10.10;99.90;;;;;;5116026;28;20873;-57
2023/11/04 01:23:30;;;;;;;3.87;2.20;;;10.10;99.90;;;;;;5116022;28;20473;-57
2023/11/04 01:25:57;;;;;;;6.13;1.70;;;10.10;99.90;;;;;;5111021;28;20521;-60
2023/11/04 01:28:25;;;;;;;2.20;1.40;;;10.10;99.90;;;;;;5098969;28;20452;-60
2023/11/04 01:30:52;;;;;;;3.83;2.13;;;10.00;99.90;;;;;;5107386;28;20472;-60
2023/11/04 01:33:20;;;;;;;5.80;2.53;;;10.00;99.90;;;;;;5097750;28;20449;-59
2023/11/04 01:35:48;;;;;;;4.50;2.80;;;10.00;99.90;;;;;;5095348;28;20438;-60
2023/11/04 01:38:15;;;;;;;4.70;1.83;;;10.00;99.90;;;;;;5110633;28;20450;-56
2023/11/04 01:40:50;;;;;;;11.47;2.10;;;10.00;99.90;;;;;;5098849;28;20449;-60
2023/11/04 01:43:25;;;;;;;3.67;2.10;;;9.90;99.90;;;;;;5096952;28;20919;-59
2023/11/04 01:46:05;;;;;;;3.73;1.97;;;9.90;99.90;;;;;;5103178;28;20497;-60
2023/11/04 01:48:32;;;;;;;5.37;2.53;;;9.90;99.90;;;;;;5095460;28;20437;-60
2023/11/04 01:51:00;;;;;;;1.57;1.37;;;9.80;99.90;;;;;;5097659;28;20477;-61
2023/11/04 01:53:28;;;;;;;2.40;1.20;;;9.80;99.90;;;;;;5117860;28;20425;-55
2023/11/04 01:55:56;;;;;;;3.43;1.47;;;9.80;99.90;;;;;;5115349;28;20441;-59
2023/11/04 01:58:24;;;;;;;5.90;2.40;;;9.70;99.90;;;;;;5109243;28;20476;-59
2023/11/04 02:00:51;;;;;;;3.67;1.43;;;9.70;99.90;;;;;;5094983;28;20475;-58
2023/11/04 02:03:19;;;;;;;8.23;2.50;;;9.70;99.90;;;;;;5094952;28;20442;-60
2023/11/04 02:05:47;;;;;;;4.73;1.43;;;9.70;99.90;;;;;;5098748;28;20847;-57
2023/11/04 02:08:15;;;;;;;4.20;1.70;;;9.70;99.90;;;;;;5102753;28;20441;-59
2023/11/04 02:10:42;;;;;;;4.00;1.80;;;9.60;99.90;;;;;;5077774;28;20973;-60
2023/11/04 02:13:12;;;;;;;4.50;1.87;;;9.60;99.90;;;;;;5087710;28;20441;-57
2023/11/04 02:15:39;;;;;;;4.07;1.43;;;9.50;99.90;;;;;;5095275;28;20446;-58
2023/11/04 02:18:07;;;;;;;6.03;3.00;;;9.50;99.90;;;;;;5082038;28;20502;-59
2023/11/04 02:20:35;;;;;;;5.40;1.63;;;9.50;99.90;;;;;;5083862;28;20426;-52
2023/11/04 02:23:03;;;;;;;7.63;1.93;;;9.40;99.90;;;;;;5085201;28;20439;-59
2023/11/04 02:25:31;;;;;;;5.10;1.93;;;9.40;99.90;;;;;;5076259;28;20466;-58
2023/11/04 02:27:58;;;;;;;8.93;2.30;;;9.40;99.90;;;;;;5088810;28;20438;-56
2023/11/04 02:30:25;;;;;;;3.03;1.70;;;9.40;99.90;;;;;;5077801;28;21116;-58
2023/11/04 02:32:52;;;;;;;3.27;1.47;;;9.40;99.90;;;;;;5079289;28;20466;-59
2023/11/04 02:35:20;;;;;;;16.67;3.20;;;9.40;99.90;;;;;;5074967;28;20550;-61
2023/11/04 02:37:50;;;;;;;3.93;2.37;;;9.30;99.90;;;;;;5074607;28;20537;-59
2023/11/04 02:40:18;;;;;;;3.10;1.70;;;9.20;99.90;;;;;;5101212;28;20438;-61
2023/11/04 02:42:45;;;;;;;8.10;2.10;;;9.20;99.90;;;;;;5109216;28;20536;-60
2023/11/04 02:45:12;;;;;;;2.43;1.53;;;9.20;99.90;;;;;;5094470;28;20556;-60
2023/11/04 02:47:39;;;;;;;4.13;1.67;;;9.20;99.90;;;;;;5097337;28;20524;-59
2023/11/04 02:50:08;;;;;;;5.90;1.73;;;9.20;99.90;;;;;;5104359;28;21006;-60
2023/11/04 02:52:34;;;;;;;6.90;1.70;;;9.20;99.90;;;;;;5097838;28;20542;-60
2023/11/04 02:55:02;;;;;;;8.70;1.70;;;9.10;99.90;;;;;;5094771;28;20476;-57
2023/11/04 02:57:30;;;;;;;5.67;2.10;;;9.10;99.90;;;;;;5102125;28;20456;-54
2023/11/04 02:59:57;;;;;;;6.70;1.80;;;9.10;99.90;;;;;;5115953;28;20438;-60
2023/11/04 03:02:24;;;;;;;8.30;1.30;;;9.10;99.90;;;;;;5095146;28;20441;-59
2023/11/04 03:04:53;;;;;;;2.80;1.70;;;9.10;99.90;;;;;;5110747;28;20473;-61
2023/11/04 03:07:23;;;;;;;2.60;1.63;;;9.00;99.90;;;;;;5115313;28;20437;-57
2023/11/04 03:09:50;;;;;;;2.30;1.37;;;9.00;99.90;;;;;;5109559;28;20441;-60
2023/11/04 03:12:17;;;;;;;6.93;1.60;;;9.00;99.90;;;;;;5097723;28;20472;-54
2023/11/04 03:14:46;;;;;;;1.30;1.20;;;9.00;99.90;;;;;;5098225;28;20498;-58
2023/11/04 03:17:14;;;;;;;8.83;2.17;;;8.90;99.90;;;;;;5097187;28;20438;-61
2023/11/04 03:19:43;;;;;;;2.43;1.30;;;8.90;99.90;;;;;;5094194;28;20545;-60
2023/11/04 03:22:10;;;;;;;4.37;1.77;;;8.90;99.90;;;;;;5104062;28;20440;-58
2023/11/04 03:24:37;;;;;;;8.47;1.73;;;8.90;99.90;;;;;;5111851;28;20480;-58
2023/11/04 03:27:05;;;;;;;7.47;1.90;;;8.80;99.90;;;;;;5110908;28;20513;-60
2023/11/04 03:29:35;;;;;;;2.50;1.47;;;8.90;99.90;;;;;;5113616;28;20428;-60
2023/11/04 03:32:05;;;;;;;3.70;1.90;;;8.90;99.90;;;;;;5104857;28;20465;-60
2023/11/04 03:34:32;;;;;;;4.33;2.40;;;8.90;99.90;;;;;;5094499;28;20449;-58
2023/11/04 03:37:02;;;;;;;4.13;2.10;;;8.80;99.90;;;;;;5097664;28;20514;-60
2023/11/04 03:39:29;;;;;;;4.87;1.80;;;8.80;99.90;;;;;;5107993;28;20453;-51
2023/11/04 03:41:56;;;;;;;3.30;1.50;;;8.80;99.90;;;;;;5119044;28;20438;-60
2023/11/04 03:44:23;;;;;;;10.30;2.30;;;8.80;99.90;;;;;;5110486;28;20891;-60
2023/11/04 03:46:54;;;;;;;4.70;1.97;;;8.80;99.90;;;;;;5120183;28;20406;-57
2023/11/04 03:49:23;;;;;;;9.63;1.80;;;8.80;99.90;;;;;;5121200;28;20421;-54
2023/11/04 03:51:50;;;;;;;7.20;2.33;;;8.70;99.90;;;;;;5118480;28;20527;-60
2023/11/04 03:54:17;;;;;;;3.47;1.40;;;8.70;99.90;;;;;;5114908;28;20897;-59
2023/11/04 03:56:44;;;;;;;7.90;1.57;;;8.60;99.90;;;;;;5121568;28;20406;-55
2023/11/04 03:59:11;;;;;;;7.07;1.70;;;8.60;99.90;;;;;;5104449;28;20500;-60
2023/11/04 04:01:39;;;;;;;3.73;1.60;;;8.60;99.90;;;;;;5098418;28;20480;-60
2023/11/04 04:04:07;;;;;;;10.00;1.60;;;8.60;99.90;;;;;;5121339;28;20438;-55
2023/11/04 04:06:35;;;;;;;4.57;1.30;;;8.60;99.90;;;;;;5121453;28;20444;-57
2023/11/04 04:09:02;;;;;;;4.70;1.13;;;8.50;99.90;;;;;;5106315;28;20473;-60
2023/11/04 04:11:29;;;;;;;2.90;1.40;;;8.60;99.90;;;;;;5111415;28;20453;-59
2023/11/04 04:13:56;;;;;;;2.97;1.60;;;8.60;99.90;;;;;;5117363;28;20464;-60
2023/11/04 04:16:23;;;;;;;5.80;1.77;;;8.60;99.90;;;;;;5102432;28;20488;-60
2023/11/04 04:18:49;;;;;;;6.70;2.10;;;8.50;99.90;;;;;;5097529;28;20488;-59
2023/11/04 04:21:16;;;;;;;6.00;1.87;;;8.50;99.90;;;;;;5097254;28;20773;-60
2023/11/04 04:23:44;;;;;;;4.47;2.23;;;8.50;99.90;;;;;;5096933;28;20993;-58
2023/11/04 04:26:18;;;;;;;12.13;2.20;;;8.40;99.90;;;;;;5103887;28;20444;-53
2023/11/04 04:28:45;;;;;;;2.93;1.80;;;8.40;99.90;;;;;;5117673;28;20473;-59
2023/11/04 04:31:12;;;;;;;5.90;1.30;;;8.40;99.90;;;;;;5117406;28;20470;-60
2023/11/04 04:33:41;;;;;;;2.53;2.07;;;8.30;99.90;;;;;;5112871;28;20427;-55
2023/11/04 04:36:09;;;;;;;6.80;2.27;;;8.30;99.90;;;;;;5097826;28;20445;-61
2023/11/04 04:38:36;;;;;;;10.90;2.43;;;8.30;99.90;;;;;;5082494;28;20489;-59
2023/11/04 04:41:05;;;;;;;3.63;1.30;;;8.20;99.90;;;;;;5096077;28;21158;-61
2023/11/04 04:43:31;;;;;;;10.10;1.80;;;8.20;99.90;;;;;;5080757;28;20489;-60
2023/11/04 04:45:58;;;;;;;3.53;1.27;;;8.20;99.90;;;;;;5081364;28;20443;-60
2023/11/04 04:48:25;;;;;;;2.93;1.40;;;8.20;99.90;;;;;;5099934;28;20427;-55
2023/11/04 04:50:52;;;;;;;5.63;1.70;;;8.20;99.90;;;;;;5097259;28;20470;-57
2023/11/04 04:53:19;;;;;;;4.10;1.43;;;8.10;99.90;;;;;;5086192;28;20518;-56
2023/11/04 04:55:46;;;;;;;3.73;1.87;;;8.10;99.90;;;;;;5097051;28;20513;-58
2023/11/04 04:58:14;;;;;;;11.40;2.03;;;8.00;99.90;;;;;;5087092;28;20478;-60
2023/11/04 05:00:41;;;;;;;6.90;1.77;;;8.00;99.90;;;;;;5076590;28;20431;-61
2023/11/04 05:03:10;;;;;;;6.20;1.67;;;8.00;99.90;;;;;;5098893;28;20468;-55
2023/11/04 05:05:37;;;;;;;3.50;1.70;;;8.00;99.90;;;;;;5099115;28;20445;-58
2023/11/04 05:08:04;;;;;;;6.17;1.90;;;8.00;99.90;;;;;;5091587;28;20461;-58
2023/11/04 05:10:30;;;;;;;6.33;2.10;;;8.00;99.90;;;;;;5078480;28;20509;-58
2023/11/04 05:12:57;;;;;;;4.90;1.83;;;8.00;99.90;;;;;;5076123;28;20481;-59
2023/11/04 05:15:25;;;;;;;4.07;1.60;;;8.00;99.90;;;;;;5075820;28;20977;-60
2023/11/04 05:17:52;;;;;;;3.50;1.63;;;8.00;99.90;;;;;;5076025;28;20493;-60
2023/11/04 05:20:19;;;;;;;6.57;1.60;;;8.00;99.90;;;;;;5084724;28;20923;-59
2023/11/04 05:22:46;;;;;;;6.03;3.40;;;8.00;99.90;;;;;;5095836;28;20471;-54
2023/11/04 05:25:13;;;;;;;2.00;1.30;;;8.00;99.90;;;;;;5095841;28;20492;-59
2023/11/04 05:27:41;;;;;;;4.20;1.73;;;8.00;99.90;;;;;;5095853;28;20485;-60
2023/11/04 05:30:08;;;;;;;3.73;1.47;;;7.90;99.90;;;;;;5095724;28;20462;-57
2023/11/04 05:32:37;;;;;;;4.60;1.40;;;8.00;99.90;;;;;;5095709;28;20847;-58
2023/11/04 05:35:05;;;;;;;9.23;1.57;;;8.00;99.90;;;;;;5095803;28;20465;-58
2023/11/04 05:37:31;;;;;;;4.83;1.20;;;7.90;99.90;;;;;;5105209;28;20438;-59
2023/11/04 05:39:58;;;;;;;3.80;2.10;;;7.90;99.90;;;;;;5095913;28;20473;-59
2023/11/04 05:42:25;;;;;;;5.33;1.60;;;7.90;99.90;;;;;;5099321;28;20517;-60
2023/11/04 05:44:57;;;;;;;5.00;1.80;;;7.90;99.90;;;;;;5100034;28;20819;-60
2023/11/04 05:47:24;;;;;;;3.83;1.70;;;7.80;99.90;;;;;;5103802;28;21056;-58
2023/11/04 05:49:52;;;;;;;5.27;2.30;;;7.90;99.90;;;;;;5106517;28;20506;-61
2023/11/04 05:52:19;;;;;;;2.80;1.10;;;7.90;99.90;;;;;;5105806;28;20504;-58
2023/11/04 05:54:48;;;;;;;5.13;1.63;;;7.90;99.90;;;;;;5106703;28;20435;-56
2023/11/04 05:57:15;;;;;;;5.90;1.53;;;7.90;99.90;;;;;;5089477;28;20524;-57
2023/11/04 05:59:44;;;;;;;4.90;2.43;;;7.90;99.90;;;;;;5075394;28;20431;-58
2023/11/04 06:02:11;;;;;;;6.37;2.30;;;7.90;99.90;;;;;;5075038;28;20442;-59
2023/11/04 06:04:38;;;;;;;8.03;1.90;;;7.90;99.90;;;;;;5089506;28;20450;-51
2023/11/04 06:07:06;;;;;;;3.53;1.83;;;7.90;99.90;;;;;;5098834;28;20419;-56
2023/11/04 06:09:33;;;;;;;4.03;1.63;;;7.90;99.90;;;;;;5098862;28;20434;-57
2023/11/04 06:12:00;;;;;;;4.73;2.27;;;7.90;99.90;;;;;;5093825;28;20885;-55
2023/11/04 06:14:28;;;;;;;6.57;2.20;;;7.90;99.90;;;;;;5090031;28;20521;-58
2023/11/04 06:16:55;;;;;;;3.30;1.53;;;7.90;99.90;;;;;;5094848;28;20480;-58
2023/11/04 06:19:22;;;;;;;4.13;1.53;;;7.80;99.90;;;;;;5075493;28;20438;-59
2023/11/04 06:21:49;;;;;;;2.70;1.50;;;7.80;99.90;;;;;;5074779;28;20529;-57
2023/11/04 06:24:17;;;;;;;4.63;1.80;;;7.90;99.90;;;;;;5083400;28;20529;-58
2023/11/04 06:26:44;;;;;;;7.17;2.37;;;7.90;99.90;;;;;;5112519;28;20452;-55
2023/11/04 06:29:11;;;;;;;2.97;1.70;;;7.90;99.90;;;;;;5116848;28;20429;-59
2023/11/04 06:31:38;;;;;;;4.83;1.67;;;7.90;99.90;;;;;;5094500;28;20503;-59
2023/11/04 06:34:06;;;;;;;2.90;1.40;;;7.90;99.90;;;;;;5106865;28;20467;-56
2023/11/04 06:36:33;;;;;;;3.43;1.63;;;7.90;99.90;;;;;;5118724;28;20444;-53
2023/11/04 06:39:04;;;;;;;2.03;1.70;;;8.00;99.90;;;;;;5114821;28;20447;-56
2023/11/04 06:41:33;;;;;;;2.53;1.40;;;8.00;99.90;;;;;;5096276;28;20461;-58
2023/11/04 06:44:00;;;;;;;5.73;1.77;;;8.00;99.90;;;;;;5112657;28;20453;-58
2023/11/04 06:46:27;;;;;;;6.63;2.27;;;8.00;99.90;;;;;;5096545;28;20520;-59
2023/11/04 06:48:54;;;;;;;3.57;2.13;;;8.00;99.90;;;;;;5094447;28;21008;-61
2023/11/04 06:51:21;;;;;;;8.40;1.63;;;8.10;99.90;;;;;;5094411;28;20535;-58
2023/11/04 06:53:48;;;;;;;11.90;2.50;;;8.10;99.90;;;;;;5094622;28;20765;-59
2023/11/04 06:56:15;;;;;;;6.47;2.03;;;8.10;99.90;;;;;;5094429;28;20437;-60
2023/11/04 06:58:44;;;;;;;3.00;1.83;;;8.10;99.90;;;;;;5094337;28;20552;-58
2023/11/04 07:01:13;;;;;;;4.67;1.80;;;8.10;99.90;;;;;;5110762;28;20413;-60
2023/11/04 07:03:40;;;;;;;3.27;1.90;;;8.10;99.90;;;;;;5110172;28;20430;-60
2023/11/04 07:06:13;;;;;;;2.30;1.60;;;8.10;99.90;;;;;;5094934;28;20494;-60
2023/11/04 07:08:40;;;;;;;10.17;2.00;;;8.20;99.90;;;;;;5102447;28;20409;-61
2023/11/04 07:11:07;;;;;;;5.03;1.90;;;8.20;99.90;;;;;;5118983;28;20473;-59
2023/11/04 07:13:34;;;;;;;3.93;2.00;;;8.20;99.90;;;;;;5109923;28;20437;-60
2023/11/04 07:16:02;;;;;;;4.07;2.73;;;8.30;99.90;;;;;;5098644;28;20449;-59
2023/11/04 07:18:29;;;;;;;2.03;1.70;;;8.40;99.90;;;;;;5098954;28;20503;-60
2023/11/04 07:21:04;;;;;;;4.27;1.83;;;8.40;99.90;;;;;;5121857;28;20437;-61
2023/11/04 07:23:30;;;;;;;2.93;2.00;;;8.50;99.90;;;;;;5116548;28;20421;-61
2023/11/04 07:25:57;;;;;;;7.73;1.80;;;8.50;99.90;;;;;;5098275;28;20492;-58
2023/11/04 07:28:25;;;;;;;2.40;1.50;;;8.50;99.90;;;;;;5120508;28;20421;-55
2023/11/04 07:30:52;;;;;;;3.13;1.63;;;8.50;99.90;;;;;;5108017;28;20534;-61
2023/11/04 07:33:21;;;;;;;4.87;1.37;;;8.60;99.90;;;;;;5098308;28;20440;-59
2023/11/04 07:35:47;;;;;;;2.77;1.73;;;8.60;99.90;;;;;;5120894;28;20476;-58
2023/11/04 07:38:16;;;;;;;3.70;2.27;;;8.70;99.90;;;;;;5117736;28;20441;-61
2023/11/04 07:40:43;;;;;;;3.03;1.93;;;8.70;99.90;;;;;;5098913;28;20477;-57
2023/11/04 07:43:10;;;;;;;4.03;1.83;;;8.70;99.90;;;;;;5099429;28;20434;-55
2023/11/04 07:45:38;;;;;;;8.30;1.67;;;8.80;99.90;;;;;;5118133;28;20446;-57
2023/11/04 07:48:05;;;;;;;6.60;2.00;;;8.80;99.90;;;;;;5104855;28;20438;-57
2023/11/04 07:50:36;;;;;;;5.23;1.70;;;8.80;99.90;;;;;;5104955;28;20509;-60
2023/11/04 07:53:02;;;;;;;2.30;1.43;;;8.90;99.90;;;;;;5097672;28;20973;-61
2023/11/04 07:55:29;;;;;;;4.33;1.60;;;8.90;99.90;;;;;;5100726;28;20548;-58
2023/11/04 07:57:56;;;;;;;3.63;1.37;;;8.90;99.90;;;;;;5110185;28;20477;-57
2023/11/04 08:00:23;;;;;;;4.37;2.40;;;8.90;99.90;;;;;;5103046;28;20514;-57
2023/11/04 08:02:50;;;;;;;2.50;1.83;;;8.90;99.90;;;;;;5098936;28;20845;-53
2023/11/04 08:05:17;;;;;;;4.70;1.30;;;8.90;99.90;;;;;;5103899;28;20478;-56
2023/11/04 08:07:45;;;;;;;4.83;1.93;;;8.90;99.90;;;;;;5084685;28;20525;-48
2023/11/04 08:10:12;;;;;;;6.90;1.77;;;9.00;99.90;;;;;;5120189;28;20433;-57
2023/11/04 08:12:39;;;;;;;5.03;2.20;;;9.00;99.90;;;;;;5101694;28;20564;-54
2023/11/04 08:15:07;;;;;;;10.10;2.10;;;9.10;99.90;;;;;;5111374;28;20446;-52
2023/11/04 08:17:33;;;;;;;2.33;1.73;;;9.10;99.90;;;;;;5115238;28;20457;-47
2023/11/04 08:20:03;;;;;;;7.17;4.10;;;9.10;99.90;;;;;;5115821;28;20441;-54
2023/11/04 08:22:32;;;;;;;3.53;2.20;;;9.20;99.90;;;;;;5105555;28;20457;-48
2023/11/04 08:25:02;;;;;;;5.33;2.60;;;9.20;99.90;;;;;;5120797;28;20450;-50
2023/11/04 08:27:29;;;;;;;5.40;1.97;;;9.20;99.90;;;;;;5099655;28;20493;-53
2023/11/04 08:29:56;;;;;;;3.40;1.77;;;9.20;99.90;;;;;;5104845;28;20422;-55
2023/11/04 08:32:23;;;;;;;4.30;2.00;;;9.30;99.90;;;;;;5112202;28;20552;-54
2023/11/04 08:34:49;;;;;;;4.47;1.83;;;9.30;99.90;;;;;;5106594;28;20696;-51
2023/11/04 08:37:16;;;;;;;2.80;1.50;;;9.40;99.90;;;;;;5098889;28;20469;-57
2023/11/04 08:39:45;;;;;;;8.00;2.60;;;9.40;99.90;;;;;;5099151;28;20495;-52
2023/11/04 08:42:13;;;;;;;4.63;2.20;;;9.50;99.90;;;;;;5105370;28;20473;-53
2023/11/04 08:44:40;;;;;;;5.00;3.00;;;9.60;99.90;;;;;;5096886;28;20543;-55
2023/11/04 08:47:07;;;;;;;6.40;2.70;;;9.60;99.90;;;;;;5104001;28;20435;-51
2023/11/04 08:49:35;;;;;;;3.87;2.53;;;9.70;99.90;;;;;;5114192;28;20454;-51
2023/11/04 08:52:04;;;;;;;4.90;2.50;;;9.70;99.90;;;;;;5110837;28;20468;-54
2023/11/04 08:54:31;;;;;;;5.47;1.37;;;9.80;99.90;;;;;;5104773;28;20450;-56
2023/11/04 08:56:58;;;;;;;7.27;2.17;;;9.90;99.90;;;;;;5115019;28;20457;-55
2023/11/04 08:59:26;;;;;;;6.03;2.93;;;9.90;99.90;;;;;;5117807;28;20462;-55
2023/11/04 09:01:53;;;;;;;3.00;1.83;;;10.00;99.90;;;;;;5101064;28;20468;-56
2023/11/04 09:04:20;;;;;;;4.17;1.73;;;10.10;99.90;;;;;;5107750;28;20526;-54
2023/11/04 09:06:47;;;;;;;5.43;1.40;;;10.10;99.90;;;;;;5111622;28;20433;-50
2023/11/04 09:09:13;;;;;;;6.17;2.10;;;10.20;99.90;;;;;;5116367;28;20497;-55
2023/11/04 09:11:41;;;;;;;6.47;2.60;;;10.40;99.90;;;;;;5106375;28;20474;-54
2023/11/04 09:14:09;;;;;;;4.50;1.40;;;10.50;99.90;;;;;;5105516;28;20458;-49
2023/11/04 09:16:37;;;;;;;3.70;1.30;;;10.70;99.90;;;;;;5116237;28;20511;-56
2023/11/04 09:19:04;;;;;;;5.80;2.23;;;10.80;99.90;;;;;;5097467;28;20572;-55
2023/11/04 09:21:31;;;;;;;1.90;1.70;;;11.00;99.90;;;;;;5096092;28;20441;-55
2023/11/04 09:23:57;;;;;;;3.00;1.30;;;11.40;99.90;;;;;;5100114;28;20422;-46
2023/11/04 09:26:24;;;;;;;3.73;1.40;;;12.50;99.90;;;;;;5111393;28;20473;-56
2023/11/04 09:28:53;;;;;;;2.50;1.50;;;13.80;99.90;;;;;;5108149;28;20430;-51
2023/11/04 09:31:20;;;;;;;2.03;1.27;;;14.90;99.90;;;;;;5100309;28;20472;-55
2023/11/04 09:33:48;;;;;;;3.90;1.77;;;15.70;99.90;;;;;;5106555;28;20529;-50
2023/11/04 09:36:15;;;;;;;1.60;1.23;;;16.20;99.90;;;;;;5112397;28;20485;-55
2023/11/04 09:38:41;;;;;;;1.93;1.33;;;16.50;99.90;;;;;;5097707;28;20520;-55
2023/11/04 09:41:09;;;;;;;4.90;2.03;;;16.50;99.90;;;;;;5099970;28;20553;-54
2023/11/04 09:43:35;;;;;;;3.80;1.80;;;16.70;99.90;;;;;;5104362;28;20906;-56
2023/11/04 09:46:05;;;;;;;3.23;1.63;;;16.90;99.90;;;;;;5095306;28;20560;-57
2023/11/04 09:48:32;;;;;;;7.57;2.90;;;17.20;99.90;;;;;;5117308;28;20461;-52
2023/11/04 09:51:03;;;;;;;9.13;2.03;;;17.50;99.90;;;;;;5099308;28;20469;-56
2023/11/04 09:53:33;;;;;;;6.10;2.20;;;17.90;99.90;;;;;;5096413;28;20468;-56
2023/11/04 09:56:04;;;;;;;2.40;1.20;;;18.40;97.30;;;;;;5113226;28;20437;-55
2023/11/04 09:58:31;;;;;;;4.17;1.33;;;18.80;95.40;;;;;;5102642;28;20460;-54
2023/11/04 10:00:59;;;;;;;2.87;1.50;;;19.30;93.80;;;;;;5093438;28;20453;-56
2023/11/04 10:03:26;;;;;;;4.73;1.60;;;19.70;90.60;;;;;;5107383;28;20448;-52
2023/11/04 10:05:52;;;;;;;2.60;1.87;;;19.70;91.30;;;;;;5115875;28;20433;-49
2023/11/04 10:08:21;;;;;;;1.60;1.10;;;19.80;87.70;;;;;;5112187;28;20481;-52
2023/11/04 10:10:48;;;;;;;9.60;2.40;;;19.60;86.60;;;;;;5119061;28;20437;-52
2023/11/04 10:13:16;;;;;;;6.30;1.77;;;19.50;90.10;;;;;;5104748;28;20480;-51
2023/11/04 10:15:43;;;;;;;3.63;1.50;;;19.20;86.80;;;;;;5099158;28;20485;-57
2023/11/04 10:18:09;;;;;;;3.53;1.90;;;19.10;86.70;;;;;;5087843;28;20435;-57
2023/11/04 10:20:37;;;;;;;3.63;1.57;;;19.30;86.10;;;;;;5078725;28;20817;-51
2023/11/04 10:23:05;;;;;;;2.10;1.50;;;19.30;86.90;;;;;;5091940;28;20489;-53
2023/11/04 10:25:33;;;;;;;1.53;1.33;;;19.50;85.40;;;;;;5108613;28;20442;-47
2023/11/04 10:28:00;;;;;;;1.50;1.17;;;19.60;85.30;;;;;;5096721;28;20547;-56
2023/11/04 10:30:27;;;;;;;1.50;1.20;;;19.30;84.50;;;;;;5094351;28;20532;-54
2023/11/04 10:32:58;;;;;;;1.70;1.30;;;19.10;85.80;;;;;;5102397;28;20469;-54
2023/11/04 10:35:26;;;;;;;2.77;1.47;;;18.80;85.90;;;;;;5113919;28;20449;-52
2023/11/04 10:38:00;;;;;;;3.83;1.83;;;18.40;87.00;;;;;;5109532;28;20410;-52
2023/11/04 10:40:27;;;;;;;2.40;1.53;;;17.70;90.00;;;;;;5077868;28;20521;-55
2023/11/04 10:42:59;;;;;;;2.60;1.20;;;17.20;90.50;;;;;;5098726;28;20997;-50
2023/11/04 10:45:31;;;;;;;2.93;1.43;;;16.80;92.00;;;;;;5104868;28;20458;-57
2023/11/04 10:48:00;;;;;;;3.57;1.40;;;16.70;93.30;;;;;;5101522;28;20473;-58
2023/11/04 10:50:32;;;;;;;2.73;1.50;;;16.60;94.70;;;;;;5092577;28;20456;-53
2023/11/04 10:53:11;;;;;;;2.17;1.43;;;16.60;95.00;;;;;;5109152;28;20481;-55
2023/11/04 10:55:47;;;;;;;1.67;1.30;;;16.30;96.00;;;;;;5102723;28;20427;-54
2023/11/04 10:58:23;;;;;;;3.20;1.50;;;15.90;96.60;;;;;;5085760;28;20476;-57
2023/11/04 11:00:51;;;;;;;3.60;1.37;;;15.40;97.60;;;;;;5083596;28;20427;-55
2023/11/04 11:03:19;;;;;;;1.80;0.97;;;14.90;99.90;;;;;;5092649;28;20508;-55
2023/11/04 11:05:47;;;;;;;3.83;1.20;;;14.60;99.90;;;;;;5096483;28;20465;-56
2023/11/04 11:08:14;;;;;;;1.87;1.27;;;14.40;99.90;;;;;;5096575;28;20453;-53
2023/11/04 11:10:50;;;;;;;2.77;1.60;;;14.20;99.90;;;;;;5097009;28;20475;-54
2023/11/04 11:13:23;;;;;;;1.70;1.20;;;14.10;99.90;;;;;;5108920;28;20503;-53
2023/11/04 11:15:50;;;;;;;1.80;1.17;;;13.90;99.90;;;;;;5109600;28;20501;-55
2023/11/04 11:18:26;;;;;;;3.17;1.70;;;13.80;99.90;;;;;;5078423;28;20526;-54
2023/11/04 11:20:53;;;;;;;2.20;1.60;;;13.60;99.90;;;;;;5075514;28;20528;-56
2023/11/04 11:23:28;;;;;;;1.50;1.10;;;13.50;99.90;;;;;;5114432;28;20437;-52
2023/11/04 11:26:04;;;;;;;1.20;0.90;;;13.50;99.90;;;;;;5111814;28;20422;-51
2023/11/04 11:28:37;;;;;;;1.53;0.90;;;13.40;99.90;;;;;;5111224;28;20455;-57
2023/11/04 11:31:05;;;;;;;1.70;1.20;;;13.40;99.90;;;;;;5113295;28;20447;-54
2023/11/04 11:33:32;;;;;;;3.00;1.33;;;13.30;99.90;;;;;;5096815;28;20671;-57
2023/11/04 11:36:00;;;;;;;1.90;1.00;;;13.20;99.90;;;;;;5096454;28;20445;-56
2023/11/04 11:38:28;;;;;;;5.37;1.07;;;13.20;99.90;;;;;;5094182;28;20534;-57
2023/11/04 11:40:55;;;;;;;6.87;1.00;;;13.10;99.90;;;;;;5114112;28;20437;-56
2023/11/04 11:43:22;;;;;;;3.27;1.13;;;13.10;99.90;;;;;;5097214;28;20552;-58
2023/11/04 11:45:50;;;;;;;1.80;1.00;;;13.00;99.90;;;;;;5094356;28;20721;-56
2023/11/04 11:48:17;;;;;;;1.53;0.90;;;12.90;99.90;;;;;;5106403;28;20480;-61
2023/11/04 11:50:45;;;;;;;2.80;1.00;;;12.90;99.90;;;;;;5117881;28;20433;-58
2023/11/04 11:53:13;;;;;;;2.60;1.10;;;12.90;99.90;;;;;;5117956;28;20505;-56
2023/11/04 11:55:42;;;;;;;1.97;1.10;;;12.90;99.90;;;;;;5101510;28;20960;-57
2023/11/04 11:58:12;;;;;;;1.47;1.07;;;12.90;99.90;;;;;;5077669;28;20453;-55
2023/11/04 12:00:39;;;;;;;1.37;0.90;;;12.90;99.90;;;;;;5078700;28;20462;-56
2023/11/04 12:03:08;;;;;;;6.17;1.33;;;12.90;99.90;;;;;;5084778;28;20442;-58
2023/11/04 12:05:37;;;;;;;1.70;1.00;;;12.90;99.90;;;;;;5097493;28;20427;-53
2023/11/04 12:08:06;;;;;;;2.33;1.17;;;12.80;99.90;;;;;;5096534;28;20918;-52
2023/11/04 12:10:33;;;;;;;2.40;1.40;;;12.90;99.90;;;;;;5121199;28;20441;-50
2023/11/04 12:13:00;;;;;;;2.23;1.10;;;13.00;99.90;;;;;;5116665;28;20476;-56
2023/11/04 12:15:27;;;;;;;2.03;1.30;;;13.00;99.90;;;;;;5098994;28;20461;-53
2023/11/04 12:18:01;;;;;;;9.13;3.10;;;13.20;99.90;;;;;;5097305;28;20465;-54
2023/11/04 12:20:30;;;;;;;1.87;1.20;;;13.60;99.90;;;;;;5117597;28;20429;-48
2023/11/04 12:22:57;;;;;;;5.77;1.20;;;13.80;99.90;;;;;;5094256;28;20520;-53
2023/11/04 12:25:25;;;;;;;1.40;0.90;;;14.00;99.90;;;;;;5094947;28;20441;-56
2023/11/04 12:27:53;;;;;;;3.43;1.20;;;14.20;99.90;;;;;;5099673;28;20426;-54
2023/11/04 12:30:21;;;;;;;4.13;1.37;;;14.30;99.90;;;;;;5100234;28;20541;-55
2023/11/04 12:32:50;;;;;;;5.57;1.57;;;14.40;99.90;;;;;;5076522;28;21041;-54
2023/11/04 12:35:17;;;;;;;4.60;1.60;;;14.30;99.90;;;;;;5076719;28;20462;-55
2023/11/04 12:37:49;;;;;;;3.53;1.30;;;14.30;99.90;;;;;;5098909;28;20461;-51
2023/11/04 12:40:18;;;;;;;2.83;1.33;;;14.30;99.90;;;;;;5099397;28;20502;-57
2023/11/04 12:42:46;;;;;;;2.33;1.10;;;14.50;99.90;;;;;;5087994;28;20485;-50
2023/11/04 12:45:15;;;;;;;3.53;1.17;;;14.70;99.90;;;;;;5100190;28;20434;-57
2023/11/04 12:47:46;;;;;;;1.40;1.10;;;14.80;99.90;;;;;;5080759;28;20487;-50
2023/11/04 12:50:15;;;;;;;1.57;1.13;;;14.70;99.90;;;;;;5100104;28;20425;-53
2023/11/04 12:52:45;;;;;;;1.20;1.00;;;14.50;99.90;;;;;;5100063;28;20438;-48
2023/11/04 12:55:13;;;;;;;1.30;1.00;;;14.30;99.90;;;;;;5098007;28;20481;-52
2023/11/04 12:57:40;;;;;;;1.30;0.70;;;14.20;99.90;;;;;;5077367;28;20438;-54